Terminal Aerodrome Forecast
Issued by NWS

Home | Current Version | Previous Version | Graphics & Text | Print | Product List | Glossary On
Versions: 1 2 3 4 5 6 7 8 9 10 11 12 13 14 15 16
000
FTUS43 KSGF 070500
TAFJLN
TAF
KJLN 070520Z 0706/0806 16014G20KT P6SM SCT150 OVC250
     FM070800 17013G20KT P6SM FEW060 OVC250 WS020/19045KT
     FM071400 20016G26KT P6SM VCSH SCT040 BKN200 PROB30 0718/0724
      5SM TSRA OVC040CB=

USA.gov is the U.S. government's official web portal to all federal, state and local government web resources and services.